Aérodrome :
LOGIN :

S'inscrire | Disclaimer

   EN    FR    IT 

 










Légende :    VFR   VFR Marginal   IFR   IFR Intensif   IFR Très Intensif
Visi : 
Plafond : 
>= 8 km
>= 3000ft
5 à 8 km
1000 à 3000 ft
1500m à 5 km
500 à 1000 ft
800 à 1500m
200 à 500 ft
< 800m
< 200 ft
Symboles :   Orages  Brouillard  Fortes neiges  Fortes précipitations  Vent > 20 kt
SIGMETs :   Divers  Orages  Givrage  Turbulence  Onde Orograph.  Cendres Volcan.







- Altitude de l'aérodrome : 3 ft
- Code IATA : DHR


EHKD - Den Helder De Kooy

DERNIER METAR :
  • 240425Z AUTO 29006KT 260V330 9999 NCD 17/14 Q1013 BLU 29008KT CAVOK

METARs EXPIRÉS :
  • 240355Z AUTO 29006KT 250V340 9999 FEW013 BKN052 18/15 Q1012 BLU
  • 240334Z AUTO 28006KT 250V320 9999 FEW013 BKN056 18/16 Q1012 BLU
  • 240329Z AUTO 29006KT 260V320 9999 FEW013 SCT016 OVC057 18/16 Q1012 WHT
  • 240325Z AUTO 28006KT 9999 FEW013 OVC056 18/16 Q1012 BLU
  • 240255Z AUTO 28005KT 9000 BR SCT049 BKN053 18/16 Q1012 BLU
  • 240238Z AUTO 27005KT 240V300 8000 BR BKN049 18/16 Q1012 BLU
  • 240225Z AUTO 28005KT 7000 BR SCT047 OVC140 18/16 Q1012 WHT
  • 240203Z AUTO 28005KT 7000 BR FEW048 OVC150 18/16 Q1012 WHT
  • 240155Z AUTO 29006KT 8000 BR OVC150 18/16 Q1012 BLU
  • 240144Z AUTO 28006KT 260V320 7000 BR OVC160 18/16 Q1012 WHT
  • 240132Z AUTO 29006KT 250V340 8000 BR OVC150 18/16 Q1012 BLU

TAF TAF EHKD
Valide du 24 à 01h jusqu'au 24 à 13h UTC


240038Z 2401/2413 28010KT 6000 SCT008 BKN010
BECMG 2401/2403 FEW018 SCT050
Pas de NOTAMs connus pour ce terrain.



MET'MAP, la Météo Aéronautique d'un coup d'oeil ! - Copyright ORBIFLY Décembre 2007 - Disclaimer

ORBIFLY MET'MAP TEAM :

Programmation & Développement : Alexandra Zaïnal
Conception & Développement : Baudouin d'Aumeries
Co-Programmation & Développement : Marc-Olivier Méhu
Soutien technique & logistique : Manuel Goepfert

Contact : metmap@orbifly.com




SOURCES & CREDITS :

   NOAA